Time;durP1;ratioP1;P1;durP2;ratioP2;P2;SDS_P1;SDS_P2;PMS_P1;PMS_P2;Temp;Humidity;BMP_temperature;BMP_pressure;BME280_temperature;BME280_humidity;BME280_pressure;Samples;Min_cycle;Max_cycle;Signal;HPM_P1;HPM_P2
2022/06/17 00:00:22;;;;;;;1.37;1.17;;;15.80;99.90;;;;;;5051360;28;20402;-70
2022/06/17 00:02:48;;;;;;;1.63;1.10;;;15.80;99.90;;;;;;5051983;28;20705;-70
2022/06/17 00:05:13;;;;;;;3.30;1.20;;;15.80;99.90;;;;;;5051223;28;20610;-69
2022/06/17 00:07:41;;;;;;;4.90;1.30;;;15.80;99.90;;;;;;5051910;28;20199;-69
2022/06/17 00:10:18;;;;;;;1.20;1.10;;;15.80;99.90;;;;;;5055119;28;20517;-70
2022/06/17 00:12:43;;;;;;;1.43;1.33;;;15.90;99.90;;;;;;5053840;28;20398;-69
2022/06/17 00:15:12;;;;;;;1.93;1.40;;;16.00;99.90;;;;;;5051133;28;20430;-69
2022/06/17 00:17:38;;;;;;;1.37;1.10;;;15.80;99.90;;;;;;5051336;28;20585;-69
2022/06/17 00:20:11;;;;;;;4.23;1.40;;;15.80;99.90;;;;;;5051261;28;20413;-69
2022/06/17 00:22:40;;;;;;;1.67;1.23;;;15.70;99.90;;;;;;5050862;28;20182;-69
2022/06/17 00:25:20;;;;;;;2.97;1.30;;;15.70;99.90;;;;;;5050581;28;20768;-70
2022/06/17 00:27:46;;;;;;;1.77;1.00;;;15.70;99.90;;;;;;5050751;28;20891;-69
2022/06/17 00:30:18;;;;;;;1.93;1.33;;;15.80;99.90;;;;;;5050872;28;20411;-69
2022/06/17 00:32:43;;;;;;;1.27;1.10;;;15.90;99.90;;;;;;5050804;28;20245;-69
2022/06/17 00:35:10;;;;;;;1.83;1.47;;;15.80;99.90;;;;;;5051174;28;20500;-69
2022/06/17 00:37:36;;;;;;;1.17;1.07;;;15.70;99.90;;;;;;5050886;28;20198;-68
2022/06/17 00:40:01;;;;;;;3.30;1.30;;;15.70;99.90;;;;;;5050836;28;20389;-70
2022/06/17 00:42:27;;;;;;;3.97;1.50;;;15.60;99.90;;;;;;5050933;28;20168;-69
2022/06/17 00:45:08;;;;;;;1.60;1.50;;;15.60;99.90;;;;;;5049949;28;20733;-69
2022/06/17 00:47:43;;;;;;;5.30;1.63;;;15.60;99.90;;;;;;5049799;28;20919;-69
2022/06/17 00:50:26;;;;;;;1.83;1.60;;;15.70;99.90;;;;;;5049840;28;20400;-69
2022/06/17 00:53:14;;;;;;;1.63;1.50;;;15.70;99.90;;;;;;5049550;28;20504;-69
2022/06/17 00:55:45;;;;;;;2.30;1.50;;;15.70;99.90;;;;;;5050856;28;20432;-69
2022/06/17 00:58:17;;;;;;;2.83;1.87;;;15.60;99.90;;;;;;5053085;28;20404;-68
2022/06/17 01:00:44;;;;;;;2.07;1.73;;;15.80;99.90;;;;;;5052957;28;20397;-68
2022/06/17 01:03:15;;;;;;;1.80;1.70;;;15.90;99.90;;;;;;5052772;28;20437;-68
2022/06/17 01:05:52;;;;;;;3.43;1.87;;;15.90;99.90;;;;;;5052642;28;20405;-69
2022/06/17 01:09:56;;;;;;;3.20;1.90;;;15.90;99.90;;;;;;5052915;28;20417;-69
2022/06/17 01:11:08;;;;;;;1.10;1.00;;;15.80;99.90;;;;;;5052962;28;20410;-69
2022/06/17 01:13:36;;;;;;;1.80;1.37;;;15.70;99.90;;;;;;5052779;28;20814;-69
2022/06/17 01:16:03;;;;;;;1.30;1.20;;;15.70;99.90;;;;;;5052876;28;20488;-69
2022/06/17 01:18:31;;;;;;;1.03;0.90;;;15.60;99.90;;;;;;5052724;28;20778;-69
2022/06/17 01:21:00;;;;;;;2.77;1.00;;;15.60;99.90;;;;;;5052767;28;20401;-69
2022/06/17 01:23:26;;;;;;;1.20;1.10;;;15.60;99.90;;;;;;5034598;28;20433;-69
2022/06/17 01:25:53;;;;;;;3.60;1.57;;;15.50;99.90;;;;;;5052402;28;20409;-70
2022/06/17 01:28:18;;;;;;;1.60;1.40;;;15.50;99.90;;;;;;5052660;28;20426;-69
2022/06/17 01:30:54;;;;;;;1.60;1.30;;;15.60;99.90;;;;;;5052657;28;20818;-69
2022/06/17 01:33:27;;;;;;;2.60;1.10;;;15.50;99.90;;;;;;5052566;28;20221;-69
2022/06/17 01:36:20;;;;;;;1.30;1.20;;;15.40;99.90;;;;;;5050264;28;20409;-69
2022/06/17 01:38:49;;;;;;;1.10;1.00;;;15.40;99.90;;;;;;5052531;28;20395;-69
2022/06/17 01:41:16;;;;;;;1.73;1.43;;;15.30;99.90;;;;;;5052767;28;20544;-69
2022/06/17 01:43:55;;;;;;;1.37;1.27;;;15.20;99.90;;;;;;5013142;28;1089998;-69
2022/06/17 01:46:31;;;;;;;1.40;1.20;;;15.20;99.90;;;;;;5053532;28;20249;-69
2022/06/17 01:49:25;;;;;;;1.63;1.33;;;15.20;99.90;;;;;;5053488;28;20417;-68
2022/06/17 01:51:59;;;;;;;1.30;1.10;;;15.10;99.90;;;;;;5042565;28;20482;-69
2022/06/17 01:54:32;;;;;;;1.30;1.20;;;15.00;99.90;;;;;;5053321;28;20465;-69
2022/06/17 01:57:00;;;;;;;2.00;1.10;;;15.00;99.90;;;;;;5055531;28;20412;-68
2022/06/17 01:59:37;;;;;;;3.30;1.23;;;15.10;99.90;;;;;;5059884;28;20835;-69
2022/06/17 02:02:04;;;;;;;2.20;1.40;;;15.00;99.90;;;;;;5053766;28;20803;-70
2022/06/17 02:04:39;;;;;;;1.80;1.70;;;15.00;99.90;;;;;;5052580;28;20413;-69
2022/06/17 02:07:31;;;;;;;1.43;1.13;;;15.00;99.90;;;;;;5053093;28;20872;-69
2022/06/17 02:09:57;;;;;;;1.50;1.13;;;15.00;99.90;;;;;;5044395;28;20729;-69
2022/06/17 02:12:24;;;;;;;1.33;1.20;;;14.90;99.90;;;;;;5052738;28;20810;-69
2022/06/17 02:14:51;;;;;;;2.60;1.50;;;14.90;99.90;;;;;;5052446;28;20289;-69
2022/06/17 02:17:17;;;;;;;1.30;1.20;;;14.80;99.90;;;;;;5052933;28;20872;-69
2022/06/17 02:19:46;;;;;;;1.00;0.80;;;14.80;99.90;;;;;;5052957;28;20495;-69
2022/06/17 02:22:19;;;;;;;2.13;1.27;;;14.70;99.90;;;;;;5052492;28;20492;-69
2022/06/17 02:24:49;;;;;;;2.60;1.27;;;14.70;99.90;;;;;;5052746;28;20511;-69
2022/06/17 02:27:15;;;;;;;1.67;1.37;;;14.70;99.90;;;;;;5052596;28;20509;-69
2022/06/17 02:29:43;;;;;;;2.40;1.60;;;14.80;99.90;;;;;;5052517;28;20520;-69
2022/06/17 02:32:10;;;;;;;2.87;1.53;;;14.70;99.90;;;;;;5052419;28;20201;-69
2022/06/17 02:35:00;;;;;;;1.43;1.33;;;14.70;99.90;;;;;;5052299;28;20949;-69
2022/06/17 02:37:27;;;;;;;1.57;1.37;;;14.70;99.90;;;;;;5052177;28;20862;-69
2022/06/17 02:39:57;;;;;;;1.43;1.33;;;14.70;99.90;;;;;;5052354;28;20492;-69
2022/06/17 02:42:30;;;;;;;1.70;1.60;;;14.70;99.90;;;;;;5052147;28;20768;-69
2022/06/17 02:45:01;;;;;;;1.77;1.40;;;14.60;99.90;;;;;;5051862;28;20897;-69
2022/06/17 02:47:28;;;;;;;1.80;1.40;;;14.60;99.90;;;;;;5052029;28;20420;-69
2022/06/17 02:49:54;;;;;;;2.80;2.30;;;14.60;99.90;;;;;;5052181;28;20402;-69
2022/06/17 02:52:38;;;;;;;1.50;1.40;;;14.60;99.90;;;;;;5051969;28;20748;-69
2022/06/17 02:55:30;;;;;;;2.20;1.90;;;14.50;99.90;;;;;;5051796;28;20503;-69
2022/06/17 02:58:17;;;;;;;1.47;1.37;;;14.50;99.90;;;;;;5051420;28;20430;-69
2022/06/17 03:00:45;;;;;;;1.80;1.53;;;14.50;99.90;;;;;;5034425;28;20512;-70
2022/06/17 03:03:14;;;;;;;1.73;1.60;;;14.50;99.90;;;;;;5051968;28;20441;-69
2022/06/17 03:05:42;;;;;;;3.10;1.60;;;14.50;99.90;;;;;;5051495;28;20413;-69
2022/06/17 03:08:37;;;;;;;5.40;1.70;;;14.40;99.90;;;;;;5051673;28;20401;-69
2022/06/17 03:11:03;;;;;;;2.23;1.20;;;14.40;99.90;;;;;;5049319;28;20819;-68
2022/06/17 03:13:38;;;;;;;2.73;1.70;;;14.40;99.90;;;;;;5051629;28;20821;-69
2022/06/17 03:16:06;;;;;;;3.97;1.80;;;14.50;99.90;;;;;;5051449;28;20397;-69
2022/06/17 03:18:32;;;;;;;1.80;1.67;;;14.50;99.90;;;;;;5051510;28;20419;-69
2022/06/17 03:21:00;;;;;;;1.50;1.30;;;14.40;99.90;;;;;;5051609;28;20887;-69
2022/06/17 03:23:33;;;;;;;1.60;1.50;;;14.40;99.90;;;;;;5051552;28;20436;-69
2022/06/17 03:26:06;;;;;;;1.70;1.60;;;14.40;99.90;;;;;;5051389;28;20437;-69
2022/06/17 03:28:39;;;;;;;1.17;1.07;;;14.40;99.90;;;;;;5051742;28;20413;-69
2022/06/17 03:31:27;;;;;;;1.77;1.47;;;14.40;99.90;;;;;;5051772;28;20394;-68
2022/06/17 03:34:04;;;;;;;1.67;1.20;;;14.50;99.90;;;;;;5051435;28;20480;-69
2022/06/17 03:36:42;;;;;;;2.30;1.60;;;14.50;99.90;;;;;;5051621;28;20406;-69
2022/06/17 03:39:24;;;;;;;1.43;1.20;;;14.50;99.90;;;;;;5051642;28;20397;-69
2022/06/17 03:41:55;;;;;;;2.20;1.50;;;14.60;99.90;;;;;;5051697;28;20404;-69
2022/06/17 03:44:24;;;;;;;9.03;1.90;;;14.60;99.90;;;;;;5052881;28;20947;-69
2022/06/17 03:46:56;;;;;;;2.43;1.27;;;14.60;99.90;;;;;;5055999;28;20406;-69
2022/06/17 03:49:27;;;;;;;2.50;1.73;;;14.60;99.90;;;;;;5051376;28;20405;-68
2022/06/17 03:51:57;;;;;;;2.97;1.30;;;14.70;99.90;;;;;;5051147;28;20835;-69
2022/06/17 03:54:24;;;;;;;1.43;1.30;;;14.70;99.90;;;;;;5051141;28;20806;-69
2022/06/17 03:56:52;;;;;;;2.40;1.40;;;14.70;99.90;;;;;;5051401;28;20406;-70
2022/06/17 03:59:24;;;;;;;1.40;1.30;;;14.80;99.90;;;;;;5051483;28;20413;-69
2022/06/17 04:01:56;;;;;;;2.00;1.30;;;14.80;99.90;;;;;;5051218;28;20885;-69
2022/06/17 04:04:26;;;;;;;2.20;1.53;;;14.90;99.90;;;;;;5050928;28;20421;-69
2022/06/17 04:06:55;;;;;;;1.93;1.50;;;14.90;99.90;;;;;;5051063;28;20397;-69
2022/06/17 04:09:26;;;;;;;2.10;1.50;;;14.90;99.90;;;;;;5051044;28;20445;-69
2022/06/17 04:11:57;;;;;;;1.80;1.27;;;14.90;99.90;;;;;;5050846;28;20412;-69
2022/06/17 04:14:48;;;;;;;1.73;1.63;;;14.90;99.90;;;;;;5051103;28;20745;-69
2022/06/17 04:17:28;;;;;;;2.50;1.47;;;15.80;99.90;;;;;;5050908;28;20407;-69
2022/06/17 04:20:31;;;;;;;1.43;1.20;;;16.90;99.90;;;;;;5051622;28;20406;-69
2022/06/17 04:23:02;;;;;;;1.77;1.20;;;17.80;99.90;;;;;;5050584;28;20408;-69
2022/06/17 04:25:48;;;;;;;1.90;1.70;;;18.20;99.90;;;;;;5050642;28;20400;-69
2022/06/17 04:28:18;;;;;;;1.60;1.37;;;18.90;99.90;;;;;;5051175;28;20799;-70
2022/06/17 04:30:50;;;;;;;2.23;1.40;;;18.50;99.90;;;;;;5052173;28;20415;-68
2022/06/17 04:33:29;;;;;;;6.47;1.73;;;18.90;99.90;;;;;;5054404;28;20483;-70
2022/06/17 04:36:02;;;;;;;1.67;1.23;;;18.70;99.90;;;;;;5054878;28;20780;-69
2022/06/17 04:38:31;;;;;;;1.47;1.33;;;18.40;99.90;;;;;;5055138;28;20403;-70
2022/06/17 04:41:00;;;;;;;1.70;1.50;;;17.90;99.90;;;;;;5055131;28;20403;-69
2022/06/17 04:43:39;;;;;;;2.30;1.50;;;17.20;99.90;;;;;;5054421;28;20815;-68
2022/06/17 04:46:13;;;;;;;1.87;1.70;;;17.00;99.90;;;;;;5053989;28;20453;-70
2022/06/17 04:48:39;;;;;;;4.07;2.20;;;17.40;99.90;;;;;;5054367;28;20502;-69
2022/06/17 04:51:07;;;;;;;3.40;2.00;;;17.60;99.90;;;;;;5054293;28;20944;-69
2022/06/17 04:53:35;;;;;;;2.07;1.87;;;17.80;99.90;;;;;;5054407;28;20310;-69
2022/06/17 04:56:20;;;;;;;2.37;2.00;;;17.40;99.90;;;;;;5054272;28;20454;-70
2022/06/17 04:58:45;;;;;;;1.60;1.50;;;18.20;99.90;;;;;;5054183;28;20411;-68
2022/06/17 05:01:19;;;;;;;1.73;1.63;;;18.90;99.90;;;;;;5054212;28;20740;-69
2022/06/17 05:03:44;;;;;;;2.80;1.80;;;19.10;99.90;;;;;;5054236;28;20197;-69
2022/06/17 05:06:10;;;;;;;3.17;2.03;;;19.90;99.90;;;;;;5054405;28;20415;-69
2022/06/17 05:08:42;;;;;;;1.80;1.70;;;20.20;99.90;;;;;;5054406;28;20182;-70
2022/06/17 05:11:25;;;;;;;1.90;1.80;;;20.30;99.90;;;;;;5054486;28;20176;-69
2022/06/17 05:14:08;;;;;;;3.20;1.70;;;19.40;99.90;;;;;;5055656;28;20547;-69
2022/06/17 05:16:33;;;;;;;3.87;1.87;;;20.00;99.90;;;;;;5055400;28;20406;-69
2022/06/17 05:18:59;;;;;;;4.00;1.90;;;19.50;99.90;;;;;;5054078;28;20448;-69
2022/06/17 05:21:25;;;;;;;3.90;2.10;;;20.50;99.90;;;;;;5053905;28;20597;-69
2022/06/17 05:23:55;;;;;;;2.10;1.30;;;21.60;99.90;;;;;;5053885;28;20189;-69
2022/06/17 05:26:21;;;;;;;1.70;1.53;;;21.80;99.90;;;;;;5053796;28;20895;-70
2022/06/17 05:28:47;;;;;;;1.80;1.70;;;21.50;99.90;;;;;;5053854;28;20470;-69
2022/06/17 05:31:18;;;;;;;2.90;1.80;;;21.00;99.90;;;;;;5054176;28;20416;-69
2022/06/17 05:33:43;;;;;;;2.33;2.17;;;21.30;99.90;;;;;;5059769;28;20260;-69
2022/06/17 05:36:09;;;;;;;2.03;1.83;;;21.20;99.90;;;;;;5054620;28;20415;-69
2022/06/17 05:38:35;;;;;;;2.00;1.90;;;21.30;99.90;;;;;;5053872;28;20174;-69
2022/06/17 05:41:00;;;;;;;2.83;2.13;;;21.40;99.90;;;;;;5053364;28;20173;-69
2022/06/17 05:43:26;;;;;;;2.10;1.90;;;22.60;99.90;;;;;;5071117;22;21189;-66
2022/06/17 05:45:51;;;;;;;2.83;1.77;;;22.70;99.90;;;;;;5032929;28;20179;-66
2022/06/17 05:48:17;;;;;;;3.53;2.30;;;23.60;99.20;;;;;;5033578;28;20617;-65
2022/06/17 05:50:43;;;;;;;3.40;1.40;;;23.50;97.80;;;;;;5033472;28;20172;-65
2022/06/17 05:53:11;;;;;;;2.03;1.83;;;22.70;99.10;;;;;;5033173;28;20258;-65
2022/06/17 05:55:38;;;;;;;3.50;2.23;;;24.20;97.50;;;;;;5033478;28;20402;-65
2022/06/17 05:58:05;;;;;;;1.93;1.70;;;21.60;99.40;;;;;;5033582;28;20394;-65
2022/06/17 06:00:32;;;;;;;3.00;1.73;;;23.10;99.10;;;;;;5033313;28;20490;-65
2022/06/17 06:03:01;;;;;;;1.80;1.70;;;23.90;97.70;;;;;;5033035;28;20430;-65
2022/06/17 06:05:29;;;;;;;2.10;2.00;;;23.90;96.60;;;;;;5033178;28;20434;-65
2022/06/17 06:07:55;;;;;;;2.40;2.20;;;23.90;97.40;;;;;;5032923;28;20413;-65
2022/06/17 06:10:22;;;;;;;2.73;1.40;;;25.20;95.40;;;;;;5033127;28;20822;-66
2022/06/17 06:12:53;;;;;;;4.43;2.07;;;25.10;94.80;;;;;;5032918;28;20183;-66
2022/06/17 06:15:30;;;;;;;2.10;1.67;;;23.90;95.50;;;;;;5032510;28;20509;-66
2022/06/17 06:17:55;;;;;;;2.30;1.67;;;24.20;96.40;;;;;;5032933;28;20417;-65
2022/06/17 06:20:21;;;;;;;2.87;1.80;;;25.10;94.40;;;;;;5032731;28;20425;-65
2022/06/17 06:22:47;;;;;;;2.50;1.80;;;24.50;94.00;;;;;;5032691;28;20168;-65
2022/06/17 06:25:16;;;;;;;2.23;1.80;;;23.50;95.40;;;;;;5032576;28;20191;-65
2022/06/17 06:27:41;;;;;;;2.47;2.00;;;23.50;94.90;;;;;;5032543;28;20178;-65
2022/06/17 06:30:21;;;;;;;1.90;1.80;;;24.50;95.10;;;;;;5032630;28;20402;-65
2022/06/17 06:33:08;;;;;;;2.37;1.87;;;24.10;93.80;;;;;;5032607;28;20527;-65
2022/06/17 06:35:36;;;;;;;1.80;1.70;;;24.40;94.60;;;;;;5032149;28;20783;-65
2022/06/17 06:38:04;;;;;;;4.30;1.53;;;25.40;92.40;;;;;;5032369;28;20398;-65
2022/06/17 06:40:30;;;;;;;1.50;1.40;;;26.00;91.60;;;;;;5032226;28;20896;-64
2022/06/17 06:42:57;;;;;;;1.93;1.73;;;27.00;89.60;;;;;;5032223;28;20892;-64
2022/06/17 06:45:27;;;;;;;1.80;1.70;;;24.80;90.50;;;;;;5031828;28;20517;-64
2022/06/17 06:47:55;;;;;;;1.83;1.70;;;26.00;91.60;;;;;;5032291;28;20398;-65
2022/06/17 06:50:24;;;;;;;2.13;1.40;;;26.50;88.60;;;;;;5032188;28;20398;-65
2022/06/17 06:52:50;;;;;;;2.67;1.60;;;27.10;87.10;;;;;;5031505;28;20942;-65
2022/06/17 06:55:16;;;;;;;1.57;1.47;;;27.10;85.30;;;;;;5031719;28;20450;-65
2022/06/17 06:57:50;;;;;;;1.60;1.50;;;27.90;83.50;;;;;;5031948;28;20167;-65
2022/06/17 07:00:20;;;;;;;2.90;1.70;;;27.80;80.10;;;;;;5032197;28;20492;-65
2022/06/17 07:02:46;;;;;;;1.87;1.70;;;27.20;82.50;;;;;;5032161;28;20472;-66
2022/06/17 07:05:12;;;;;;;1.80;1.60;;;26.70;82.40;;;;;;5031835;28;20920;-66
2022/06/17 07:07:38;;;;;;;1.30;1.20;;;27.90;80.50;;;;;;5031969;28;20164;-66
2022/06/17 07:10:04;;;;;;;2.90;1.87;;;27.20;80.30;;;;;;5032120;28;20190;-66
2022/06/17 07:12:30;;;;;;;2.60;1.47;;;27.70;79.60;;;;;;5032017;28;20908;-66
2022/06/17 07:14:56;;;;;;;1.50;1.40;;;27.80;78.40;;;;;;5031565;28;20446;-66
2022/06/17 07:17:21;;;;;;;4.43;1.47;;;27.40;80.80;;;;;;5031887;28;20183;-65
2022/06/17 07:19:47;;;;;;;1.83;1.40;;;27.70;78.50;;;;;;5032025;28;20172;-66
2022/06/17 07:22:13;;;;;;;1.40;1.30;;;28.00;77.80;;;;;;5031498;28;20410;-66
2022/06/17 07:24:38;;;;;;;1.90;1.43;;;28.20;78.20;;;;;;5031630;28;20244;-66
2022/06/17 07:27:04;;;;;;;2.70;1.37;;;26.60;78.00;;;;;;5013565;28;20209;-66
2022/06/17 07:29:30;;;;;;;4.87;1.70;;;26.20;81.00;;;;;;5031816;28;20628;-66
2022/06/17 07:31:55;;;;;;;1.40;1.30;;;27.00;79.50;;;;;;5031684;28;20219;-66
2022/06/17 07:34:21;;;;;;;1.20;1.10;;;27.30;77.90;;;;;;5013730;28;20309;-66
2022/06/17 07:42:14;;;;;;;1.77;1.67;;;25.30;82.70;;;;;;5031373;28;20405;-65
2022/06/17 07:44:40;;;;;;;1.57;1.47;;;26.60;81.50;;;;;;5030841;28;20805;-66
2022/06/17 07:47:06;;;;;;;2.40;1.63;;;27.00;80.40;;;;;;5030912;28;20182;-65
2022/06/17 07:49:31;;;;;;;2.43;1.33;;;26.90;79.90;;;;;;5031220;28;20249;-65
2022/06/17 07:51:57;;;;;;;1.40;1.30;;;26.20;79.70;;;;;;5031291;28;20170;-66
2022/06/17 07:54:22;;;;;;;1.20;1.10;;;26.00;82.10;;;;;;5031166;28;20207;-66
2022/06/17 07:56:48;;;;;;;1.60;1.50;;;25.50;81.90;;;;;;5031003;28;20250;-66
2022/06/17 07:59:13;;;;;;;1.63;1.40;;;25.70;83.40;;;;;;5031291;28;20190;-66
2022/06/17 08:01:39;;;;;;;2.20;1.13;;;25.70;80.10;;;;;;5031603;28;20195;-65
2022/06/17 08:04:05;;;;;;;1.60;1.33;;;25.20;82.30;;;;;;5030986;28;20183;-66
2022/06/17 08:06:31;;;;;;;1.90;1.27;;;26.80;80.30;;;;;;5033928;28;20171;-66
2022/06/17 08:08:58;;;;;;;2.87;1.30;;;27.80;76.40;;;;;;5035337;28;20976;-65
2022/06/17 08:11:24;;;;;;;1.63;1.53;;;26.90;77.40;;;;;;5035430;28;20534;-66
2022/06/17 08:13:49;;;;;;;1.40;1.20;;;27.30;76.80;;;;;;5035118;28;20453;-66
2022/06/17 08:16:15;;;;;;;2.83;1.60;;;26.70;76.80;;;;;;5034866;28;20948;-66
2022/06/17 08:18:42;;;;;;;1.30;1.20;;;27.50;76.30;;;;;;5035575;28;20203;-66
2022/06/17 08:21:11;;;;;;;2.60;1.33;;;28.40;73.90;;;;;;5035339;28;20190;-66
2022/06/17 08:23:36;;;;;;;1.30;1.20;;;26.70;79.10;;;;;;5035244;28;20426;-66
2022/06/17 08:26:03;;;;;;;1.70;1.23;;;27.20;76.30;;;;;;5035006;28;20409;-66
2022/06/17 08:28:29;;;;;;;1.40;1.10;;;27.40;76.00;;;;;;5034981;28;20551;-66
2022/06/17 08:30:55;;;;;;;2.70;1.30;;;27.70;76.10;;;;;;5034922;28;20398;-66
2022/06/17 08:33:27;;;;;;;1.30;1.20;;;27.20;73.50;;;;;;5034723;28;20203;-66
2022/06/17 08:35:55;;;;;;;1.70;1.10;;;27.00;75.70;;;;;;5034572;28;20403;-66
2022/06/17 08:38:25;;;;;;;1.50;1.40;;;27.00;71.50;;;;;;5034877;28;20912;-66
2022/06/17 08:40:53;;;;;;;4.40;1.30;;;26.20;74.10;;;;;;5034990;28;20390;-66
2022/06/17 08:43:28;;;;;;;1.10;1.00;;;26.20;74.40;;;;;;5034224;28;20402;-67
2022/06/17 08:46:19;;;;;;;3.33;3.03;;;26.60;73.60;;;;;;5034605;28;20770;-66
2022/06/17 08:49:03;;;;;;;1.43;1.10;;;27.60;72.00;;;;;;5034809;28;20390;-65
2022/06/17 08:51:51;;;;;;;3.17;1.00;;;28.30;70.00;;;;;;5034671;28;20479;-65
2022/06/17 08:54:22;;;;;;;2.13;1.83;;;27.40;71.30;;;;;;5034458;28;20511;-65
2022/06/17 08:57:09;;;;;;;1.17;1.03;;;27.40;71.60;;;;;;5034462;28;20433;-64
2022/06/17 08:59:52;;;;;;;1.30;1.10;;;27.00;69.60;;;;;;5034435;28;20404;-65
2022/06/17 09:02:41;;;;;;;3.00;1.00;;;27.10;70.00;;;;;;5034108;28;20409;-65
2022/06/17 09:05:53;;;;;;;1.43;0.90;;;25.90;69.00;;;;;;5034222;28;20429;-65
2022/06/17 09:09:03;;;;;;;1.37;1.00;;;27.20;69.50;;;;;;5020489;28;20939;-65
2022/06/17 09:11:49;;;;;;;1.17;1.00;;;27.80;64.70;;;;;;5005509;28;20479;-66
2022/06/17 09:14:27;;;;;;;1.50;1.00;;;27.20;67.30;;;;;;5033834;28;20481;-65
2022/06/17 09:17:13;;;;;;;1.40;1.10;;;27.60;65.30;;;;;;5033562;28;20506;-65
2022/06/17 09:19:44;;;;;;;4.80;2.93;;;26.70;68.70;;;;;;5034457;28;20433;-65
2022/06/17 09:22:25;;;;;;;1.67;1.10;;;27.30;68.20;;;;;;5034161;28;20833;-65
2022/06/17 09:24:51;;;;;;;1.07;0.97;;;27.50;64.00;;;;;;5033831;28;20422;-65
2022/06/17 09:27:28;;;;;;;1.70;1.60;;;27.10;67.30;;;;;;5033701;28;20468;-66
2022/06/17 09:30:15;;;;;;;1.27;1.00;;;27.70;66.70;;;;;;5034080;28;20399;-66
2022/06/17 09:33:02;;;;;;;1.37;1.10;;;28.40;62.30;;;;;;5033950;28;20402;-66
2022/06/17 09:35:53;;;;;;;0.93;0.87;;;27.00;64.20;;;;;;5033452;28;20480;-65
2022/06/17 09:38:27;;;;;;;1.23;1.13;;;25.90;69.20;;;;;;5033601;28;20410;-66
2022/06/17 09:41:07;;;;;;;1.70;1.30;;;26.70;66.50;;;;;;5033796;28;20399;-66
2022/06/17 09:43:44;;;;;;;1.20;1.00;;;27.90;64.00;;;;;;5033370;28;20465;-66
2022/06/17 09:46:25;;;;;;;1.13;1.00;;;28.60;62.60;;;;;;5015461;28;20468;-66
2022/06/17 09:48:51;;;;;;;1.20;1.00;;;26.90;62.00;;;;;;5033838;28;20692;-66
2022/06/17 09:51:28;;;;;;;1.20;1.10;;;26.20;65.80;;;;;;5033651;28;20402;-66
2022/06/17 09:54:20;;;;;;;1.33;1.00;;;27.80;63.30;;;;;;5033440;28;20183;-67
2022/06/17 09:56:53;;;;;;;1.20;1.00;;;29.10;60.10;;;;;;5015560;28;20426;-66
2022/06/17 09:59:56;;;;;;;1.57;0.80;;;28.50;59.50;;;;;;5033626;28;20840;-66
2022/06/17 10:02:34;;;;;;;0.83;0.77;;;29.00;59.60;;;;;;5002090;28;20426;-66
2022/06/17 10:05:01;;;;;;;1.77;0.90;;;28.20;61.30;;;;;;5032923;28;20459;-66
2022/06/17 10:07:43;;;;;;;1.10;0.93;;;28.10;58.90;;;;;;5033485;28;20406;-65
2022/06/17 10:10:29;;;;;;;0.87;0.87;;;27.80;59.10;;;;;;5033229;28;20441;-65
2022/06/17 10:13:12;;;;;;;1.20;0.93;;;26.80;63.40;;;;;;5032901;28;20417;-65
2022/06/17 10:18:31;;;;;;;1.73;1.20;;;26.20;63.70;;;;;;5032776;28;20473;-65
2022/06/17 10:19:00;;;;;;;2.80;1.10;;;26.40;65.50;;;;;;5033153;28;20391;-66
2022/06/17 10:21:44;;;;;;;4.50;1.13;;;25.90;68.30;;;;;;5033065;28;20771;-66
2022/06/17 10:24:26;;;;;;;1.53;1.17;;;25.30;67.70;;;;;;5032990;28;20967;-65
2022/06/17 10:27:00;;;;;;;1.17;1.07;;;25.80;70.20;;;;;;5014994;28;20441;-65
2022/06/17 10:29:44;;;;;;;1.37;1.10;;;25.80;68.60;;;;;;5032149;28;20404;-66
2022/06/17 10:32:10;;;;;;;1.20;1.10;;;26.10;66.90;;;;;;5033096;28;20405;-66
2022/06/17 10:34:46;;;;;;;1.50;1.23;;;25.90;68.70;;;;;;5032523;28;20887;-66
2022/06/17 10:37:13;;;;;;;1.10;1.00;;;25.70;69.60;;;;;;5032773;28;20242;-66
2022/06/17 10:39:39;;;;;;;1.33;1.07;;;25.70;67.60;;;;;;5032458;28;20411;-66
2022/06/17 10:42:15;;;;;;;1.37;1.10;;;25.80;66.50;;;;;;5032186;28;20553;-66
2022/06/17 10:44:44;;;;;;;11.60;8.10;;;26.00;68.30;;;;;;5031961;28;20752;-66
2022/06/17 10:47:25;;;;;;;1.20;1.10;;;25.80;70.50;;;;;;5032621;28;20849;-66
2022/06/17 10:49:56;;;;;;;1.27;1.17;;;25.50;69.10;;;;;;5032529;28;20697;-66
2022/06/17 10:52:32;;;;;;;1.20;1.10;;;24.90;69.40;;;;;;5032353;28;20490;-66
2022/06/17 10:55:00;;;;;;;1.10;0.90;;;25.20;70.80;;;;;;5014390;28;20457;-66
2022/06/17 10:57:29;;;;;;;1.70;1.20;;;25.00;69.40;;;;;;5032685;28;20749;-65
2022/06/17 10:59:55;;;;;;;1.30;1.20;;;25.50;69.30;;;;;;5032349;28;20507;-65
2022/06/17 11:02:21;;;;;;;1.63;1.00;;;25.50;67.20;;;;;;5032161;28;20968;-65
2022/06/17 11:05:01;;;;;;;1.00;0.90;;;26.10;65.50;;;;;;5031641;28;20533;-66
2022/06/17 11:07:35;;;;;;;0.87;0.87;;;26.00;65.00;;;;;;5032023;28;20198;-65
2022/06/17 11:10:13;;;;;;;1.30;1.20;;;26.00;65.50;;;;;;5014319;28;20475;-65
2022/06/17 11:12:42;;;;;;;1.00;0.90;;;26.30;65.40;;;;;;5031917;28;20409;-65
2022/06/17 11:15:35;;;;;;;1.20;1.10;;;25.50;65.80;;;;;;5031659;28;20482;-65
2022/06/17 11:18:09;;;;;;;1.10;1.00;;;25.30;67.60;;;;;;5032038;28;20758;-66
2022/06/17 11:20:37;;;;;;;1.83;1.10;;;25.30;67.60;;;;;;5031859;28;20411;-66
2022/06/17 11:23:15;;;;;;;1.07;0.97;;;25.40;69.00;;;;;;5014191;28;20418;-65
2022/06/17 11:25:42;;;;;;;1.30;1.20;;;24.80;69.60;;;;;;5031948;28;20417;-66
2022/06/17 11:28:33;;;;;;;1.40;1.30;;;25.20;69.30;;;;;;5031733;28;20405;-65
2022/06/17 11:31:04;;;;;;;2.10;1.20;;;25.40;69.50;;;;;;5031933;28;20403;-65
2022/06/17 11:33:37;;;;;;;1.07;0.97;;;25.70;67.10;;;;;;5031355;28;20465;-65
2022/06/17 11:36:06;;;;;;;0.83;0.83;;;25.50;65.00;;;;;;5031586;28;20835;-66
2022/06/17 11:38:33;;;;;;;1.43;1.00;;;25.70;63.00;;;;;;5031405;28;20431;-65
2022/06/17 11:41:00;;;;;;;1.70;1.03;;;25.60;63.10;;;;;;5031513;28;20437;-66
2022/06/17 11:45:52;;;;;;;1.20;1.10;;;25.60;67.00;;;;;;5074631;23;20542;-68
2022/06/17 11:48:20;;;;;;;3.17;0.90;;;26.00;66.00;;;;;;5053779;28;20536;-69
2022/06/17 11:51:11;;;;;;;1.20;1.00;;;26.10;66.00;;;;;;5053882;28;20170;-69
2022/06/17 11:53:48;;;;;;;1.37;1.13;;;26.20;66.10;;;;;;5053114;28;20420;-68
2022/06/17 11:56:39;;;;;;;1.30;1.20;;;26.00;64.50;;;;;;5053570;28;20388;-68
2022/06/17 11:59:10;;;;;;;0.90;0.90;;;25.80;63.50;;;;;;5052511;28;20440;-68
2022/06/17 12:01:35;;;;;;;1.90;1.10;;;25.30;65.40;;;;;;5052506;28;20415;-69
2022/06/17 12:04:01;;;;;;;1.13;1.03;;;25.60;67.10;;;;;;5053705;28;20447;-69
2022/06/17 12:06:43;;;;;;;1.00;0.90;;;26.00;65.90;;;;;;5054239;28;20811;-69
2022/06/17 12:09:24;;;;;;;0.83;0.83;;;26.10;63.90;;;;;;5054201;28;20235;-70
2022/06/17 12:11:54;;;;;;;2.03;1.20;;;26.10;64.00;;;;;;5054035;28;20407;-69
2022/06/17 12:14:49;;;;;;;1.67;0.90;;;26.20;64.50;;;;;;5053492;28;20435;-68
2022/06/17 12:17:17;;;;;;;1.00;0.90;;;26.10;64.00;;;;;;5053764;28;20412;-69
2022/06/17 12:19:42;;;;;;;3.53;1.17;;;26.10;64.00;;;;;;5054626;28;20442;-70
2022/06/17 12:22:19;;;;;;;3.47;1.20;;;26.30;63.40;;;;;;5054890;28;20437;-71
2022/06/17 12:25:00;;;;;;;1.30;1.13;;;25.90;63.60;;;;;;5054311;28;20204;-70
2022/06/17 12:27:30;;;;;;;1.13;0.80;;;25.90;65.00;;;;;;5054343;28;20383;-70
2022/06/17 12:30:03;;;;;;;1.30;1.20;;;26.20;63.70;;;;;;5054483;28;20404;-73
2022/06/17 12:32:41;;;;;;;1.40;1.00;;;26.30;63.50;;;;;;5054128;28;20780;-70
2022/06/17 12:35:33;;;;;;;1.30;1.10;;;26.50;62.40;;;;;;5052602;28;20525;-69
2022/06/17 12:38:27;;;;;;;1.27;0.90;;;26.10;62.50;;;;;;5052476;28;20403;-68
2022/06/17 12:41:22;;;;;;;1.27;0.90;;;26.50;62.60;;;;;;5053042;28;20918;-69
2022/06/17 12:44:25;;;;;;;2.30;0.80;;;26.00;60.10;;;;;;5053341;28;20966;-69
2022/06/17 12:46:56;;;;;;;3.30;1.47;;;26.00;60.90;;;;;;5052396;28;20921;-68
2022/06/17 12:55:54;;;;;;;0.80;0.80;;;26.80;61.60;;;;;;5056166;28;20949;-69
2022/06/17 12:58:30;;;;;;;1.23;1.10;;;27.00;58.50;;;;;;5057006;28;20392;-69
2022/06/17 13:01:51;;;;;;;0.97;0.90;;;26.40;58.10;;;;;;5056985;28;20960;-69
2022/06/17 13:04:35;;;;;;;1.20;1.10;;;26.40;59.50;;;;;;4975808;28;20470;-69
2022/06/17 13:07:18;;;;;;;1.20;1.10;;;26.50;59.30;;;;;;5050848;28;20411;-70
2022/06/17 13:13:36;;;;;;;1.50;0.93;;;26.50;59.70;;;;;;5051736;28;20539;-69
2022/06/17 13:16:26;;;;;;;1.73;1.13;;;26.50;59.10;;;;;;5026492;28;20427;-70
2022/06/17 13:19:10;;;;;;;1.20;1.10;;;27.10;59.30;;;;;;5057554;28;20403;-70
2022/06/17 13:21:51;;;;;;;1.30;1.10;;;27.60;58.60;;;;;;5057211;28;20438;-70
2022/06/17 13:24:30;;;;;;;1.23;1.10;;;27.30;58.20;;;;;;5057007;28;20487;-69
2022/06/17 13:27:01;;;;;;;1.07;0.80;;;26.80;58.00;;;;;;5056929;28;20395;-70
2022/06/17 13:29:55;;;;;;;1.03;0.93;;;26.70;58.30;;;;;;5057021;28;20980;-70
2022/06/17 13:32:25;;;;;;;1.00;0.90;;;27.20;58.30;;;;;;5059440;28;20438;-69
2022/06/17 13:35:03;;;;;;;2.10;1.03;;;27.30;57.30;;;;;;5058886;28;20428;-70